Nearby METAR Reports

 

KRUT - Rutland State, Vermont, USA
Distance from station: NW 10mi, 17km
Updated: Tue, 14-Aug-2018 10:04pm EDT
NOT Current
Heavy thunderstorm, Rain, Mist, Overcast
Heavy thunderstorm, Rain, Mist, Overcast
 Wind from ESE
Wind: ESE 10 mph , 17 km/h
Temperature: 66°F , 19°C
Dew Point: 66°F , 19°C
Humidity: 100%
Barometer: 29.87 inHg , 1011.5 hPa
Summary: Heavy thunderstorm, Rain, Mist
Clouds: Overcast
Visibility: 3 miles , 5 km
Cloud details: Few Clouds 1900 ft
Mostly cloudy 3300 ft
Overcast 4300 ft
2018/08/15 02:04 KRUT 150204Z AUTO 12009KT 3SM +TSRA BR FEW019 BKN033 OVC043 19/19 A2987 RMK AO2 LTG DSNT SE P0007 $
KVSF - Springfield, Vermont, USA
Distance from station: ESE 15mi, 23km
Updated: Wed, 15-Aug-2018 11:54am EDT
Few Clouds
Few Clouds
 Wind from SW
Wind: SW 7 mph , 11 km/h
Temperature: 81°F , 27°C
Heat Index: 84°F , 29°C
Dew Point: 68°F , 20°C
Humidity: 66%
Barometer: 29.87 inHg , 1011.5 hPa
Clouds: Few Clouds
Visibility: 10 miles , 16 km
Cloud details: Few Clouds 3200 ft
2018/08/15 15:54 KVSF 151554Z AUTO 22006KT 10SM FEW032 27/20 A2987 RMK AO2 SLP113 T02670200
 
KLEB - Lebanon, New Hampshire, USA
Distance from station: ENE 28mi, 46km
Updated: Wed, 15-Aug-2018 12:00pm EDT
Partly cloudy
Partly cloudy
 Wind from NNW
Wind: NNW 8 mph , 13 km/h
Temperature: 84°F , 29°C
Heat Index: 87°F , 31°C
Dew Point: 68°F , 20°C
Humidity: 58%
Barometer: 29.86 inHg , 1011.2 hPa
Clouds: Partly cloudy
Visibility: 10 miles , 16 km
Cloud details: Few Clouds 3000 ft
Partly cloudy 3900 ft
2018/08/15 16:00 KLEB 151600Z 34007KT 10SM FEW030 SCT039 29/20 A2986 RMK AO2 T02940200
K6B0 - Middlebury, Vermont, USA
Distance from station: NNW 42mi, 67km
Updated: Wed, 15-Aug-2018 12:15pm EDT
Partly cloudy
Partly cloudy
 Wind from SSW
Wind: SSW 3 mph , 6 km/h
Temperature: 79°F , 26°C
Dew Point: 70°F , 21°C
Humidity: 74%
Barometer: 29.87 inHg , 1011.5 hPa
Clouds: Partly cloudy
Visibility: 10 miles , 16 km
Cloud details: Partly cloudy 6500 ft
2018/08/15 16:15 K6B0 151615Z AUTO 20003KT 10SM SCT065 26/21 A2987 RMK AO2 T02590206
 
KGFL - Glens Falls, New York, USA
Distance from station: W 42mi, 68km
Updated: Wed, 15-Aug-2018 11:53am EDT
Clear
Clear
 Wind from SSE
Wind: SSE 8 mph , 13 km/h
Temperature: 79°F , 26°C
Dew Point: 70°F , 21°C
Humidity: 74%
Barometer: 29.88 inHg , 1011.9 hPa
Clouds: Clear
Visibility: 10 miles , 16 km
2018/08/15 15:53 KGFL 151553Z AUTO 16007KT 10SM CLR 26/21 A2988 RMK AO2 SLP115 T02560211
KDDH - Bennington, Vermont, USA
Distance from station: SSW 43mi, 69km
Updated: Wed, 15-Aug-2018 11:54am EDT
Mostly cloudy
Mostly cloudy
 Wind from W
Wind: W 5 mph , 7 km/h
Temperature: 79°F , 26°C
Dew Point: 66°F , 19°C
Humidity: 65%
Barometer: 29.91 inHg , 1012.9 hPa
Clouds: Mostly cloudy
Visibility: 10 miles , 16 km
Cloud details: Mostly cloudy 1900 ft
Mostly cloudy 2600 ft
2018/08/15 15:54 KDDH 151554Z AUTO 27004KT 10SM BKN019 BKN026 26/19 A2991 RMK AO2 SLP123 T02560194
 
KEEN - Keene/Dillant, New Hampshire, USA
Distance from station: SE 46mi, 73km
Updated: Wed, 15-Aug-2018 12:15pm EDT
Haze, Partly cloudy
Haze, Partly cloudy
 Wind from calm
Wind: Calm
Barometer: 29.87 inHg , 1011.5 hPa
Summary: Haze
Clouds: Partly cloudy
Visibility: 5 miles , 8 km
Cloud details: Partly cloudy 2600 ft
2018/08/15 16:15 KEEN 151615Z AUTO 00000KT 5SM HZ SCT026 A2987 RMK AO2 FZRANO $
KALB - Albany, New York, USA
Distance from station: SW 69mi, 111km
Updated: Wed, 15-Aug-2018 11:51am EDT
Partly cloudy
Partly cloudy
 Wind from W
Wind: W 8 mph , 13 km/h
Temperature: 82°F , 28°C
Heat Index: 85°F , 29°C
Dew Point: 68°F , 20°C
Humidity: 62%
Barometer: 29.90 inHg , 1012.5 hPa
Clouds: Partly cloudy
Visibility: 10 miles , 16 km
Cloud details: Partly cloudy 2400 ft
Partly cloudy 6500 ft
Partly cloudy 26000 ft
2018/08/15 15:51 KALB 151551Z 27007KT 10SM SCT024 SCT065 SCT260 28/20 A2990 RMK AO2 SLP124 SCT024 V FEW T02780200
 
KSCH - Schenectady Airp, New York, USA
Distance from station: SW 69mi, 111km
Updated: Wed, 15-Aug-2018 10:45am EDT
NOT Current
Mostly cloudy
Mostly cloudy
 Wind from W
Wind: W 10 mph , 17 km/h
Temperature: 77°F , 25°C
Dew Point: 68°F , 20°C
Humidity: 74%
Barometer: 29.91 inHg , 1012.9 hPa
Clouds: Mostly cloudy
Visibility: 10 miles , 16 km
Cloud details: Mostly cloudy 1700 ft
2018/08/15 14:45 KSCH 151445Z 26009KT 10SM BKN017 25/20 A2991
KLCI - Laconia Muni, New Hampshire, USA
Distance from station: E 69mi, 112km
Updated: Wed, 15-Aug-2018 12:17pm EDT
Partly cloudy
Partly cloudy
 Wind from W
Wind: W 6 mph , 9 km/h
Temperature: 81°F , 27°C
Heat Index: 84°F , 29°C
Dew Point: 68°F , 20°C
Humidity: 66%
Barometer: 29.85 inHg , 1010.8 hPa
Clouds: Partly cloudy
Visibility: 10 miles , 16 km
Cloud details: Partly cloudy 3300 ft
2018/08/15 16:17 KLCI 151617Z AUTO 27005KT 10SM SCT033 27/20 A2985 RMK AO2
 
KBTV - Burlington, Vermont, USA
Distance from station: NNW 74mi, 120km
Updated: Wed, 15-Aug-2018 11:54am EDT
Mostly cloudy
Mostly cloudy
 Wind from S
Wind: S 8 mph , 13 km/h
Temperature: 82°F , 28°C
Heat Index: 84°F , 29°C
Dew Point: 66°F , 19°C
Humidity: 58%
Barometer: 29.85 inHg , 1010.8 hPa
Clouds: Mostly cloudy
Visibility: 10 miles , 16 km
Cloud details: Few Clouds 6500 ft
Partly cloudy 12000 ft
Mostly cloudy 20000 ft
2018/08/15 15:54 KBTV 151554Z 18007KT 10SM FEW065 SCT120 BKN200 28/19 A2985 RMK AO2 SLP104 ACSL N-E T02830194
KMHT - Manchester, New Hampshire, USA
Distance from station: ESE 76mi, 123km
Updated: Wed, 15-Aug-2018 11:53am EDT
Mostly cloudy
Mostly cloudy
 Wind from varies
Wind: varies 3 mph , 6 km/h
Temperature: 81°F , 27°C
Heat Index: 85°F , 29°C
Dew Point: 70°F , 21°C
Humidity: 70%
Barometer: 29.84 inHg , 1010.5 hPa
Clouds: Mostly cloudy
Visibility: 10 miles , 16 km
Cloud details: Partly cloudy 2800 ft
Mostly cloudy 25000 ft
2018/08/15 15:53 KMHT 151553Z VRB03KT 10SM SCT028 BKN250 27/21 A2984 RMK AO2 SLP114 T02670206
 
KMVL - Morrisville, Vermont, USA
Distance from station: N 77mi, 124km
Updated: Wed, 15-Aug-2018 11:54am EDT
Few Clouds
Few Clouds
 Wind from varies
Wind: varies 3 mph , 6 km/h
Temperature: 79°F , 26°C
Dew Point: 68°F , 20°C
Humidity: 70%
Barometer: 29.87 inHg , 1011.5 hPa
Clouds: Few Clouds
Visibility: 10 miles , 16 km
Cloud details: Few Clouds 6000 ft
2018/08/15 15:54 KMVL 151554Z AUTO VRB03KT 10SM FEW060 26/20 A2987 RMK AO2 SLP113 T02610200